Pinar del Rio, Cuba
Current Conditions -  °F | °C
As of 4:55 PM on Tuesday 21 Oct 2014 (Local Time) from MUHA Reporting Station
Broken Clouds Broken Clouds  
Wind Chill: 77°   Ceiling: 7000
Heat Index: 79°   Visibility: 5mi
Dew Point: 70°   Wind: 7mph
Humidity: 78%   Direction: 20°NNE
Pressure: 29.91"   Gusts: NA
Location:  22.41°N, 83.7°W
Report Text: MUHA 212055Z 02006KT 320V060 8000 SCT020 BKN070 25/21 Q1013
Loading
Personal Weather Stations






























Interactive Weather Map
Tropical Storm Tracking
New forecast layout! Learn more

10-Day Weather Forecast

Advertisements
Track Severe Weather on mobile